createdAt,value
2018-12-15T00:02:22.456Z,97.82
2018-12-15T00:05:26.245Z,97.85
2018-12-15T00:08:29.765Z,97.95
2018-12-15T00:11:33.440Z,98.03
2018-12-15T00:14:36.933Z,97.98
2018-12-15T00:17:40.409Z,97.86
2018-12-15T00:20:43.980Z,98.11
2018-12-15T00:26:44.590Z,98.34
2018-12-15T00:29:48.155Z,98.24
2018-12-15T00:32:51.595Z,97.82
2018-12-15T00:35:55.140Z,97.48
2018-12-15T00:38:58.635Z,97.17
2018-12-15T00:42:02.241Z,97.15
2018-12-15T00:45:06.361Z,96.95
2018-12-15T00:48:10.295Z,96.83
2018-12-15T00:51:13.885Z,96.70
2018-12-15T00:54:18.016Z,96.83
2018-12-15T00:57:21.646Z,96.84
2018-12-15T01:00:26.149Z,97.07
2018-12-15T01:03:30.109Z,97.34
2018-12-15T01:06:33.641Z,96.86
2018-12-15T01:09:37.271Z,96.94
2018-12-15T01:12:40.781Z,96.60
2018-12-15T01:15:45.359Z,96.88
2018-12-15T01:18:48.885Z,96.89
2018-12-15T01:21:52.407Z,96.43
2018-12-15T01:24:55.900Z,96.35
2018-12-15T01:27:59.412Z,96.15
2018-12-15T01:31:02.945Z,95.96
2018-12-15T01:34:06.540Z,96.21
2018-12-15T01:37:10.130Z,96.18
2018-12-15T01:40:13.735Z,96.05
2018-12-15T01:43:17.272Z,96.04
2018-12-15T01:46:20.820Z,96.34
2018-12-15T01:49:24.354Z,96.55
2018-12-15T01:52:27.948Z,96.70
2018-12-15T01:55:31.850Z,96.63
2018-12-15T01:58:35.416Z,96.82
2018-12-15T02:01:38.952Z,96.63
2018-12-15T02:04:44.130Z,96.94
2018-12-15T02:07:47.807Z,96.78
2018-12-15T02:10:51.335Z,96.54
2018-12-15T02:13:54.820Z,96.61
2018-12-15T02:16:58.425Z,96.77
2018-12-15T02:20:02.052Z,96.08
2018-12-15T02:23:05.595Z,96.31
2018-12-15T02:26:09.101Z,96.07
2018-12-15T02:29:16.431Z,96.04
2018-12-15T02:32:19.978Z,96.10
2018-12-15T02:35:23.487Z,95.92
2018-12-15T02:38:27.002Z,96.09
2018-12-15T02:41:30.540Z,96.29
2018-12-15T02:44:34.117Z,96.31
2018-12-15T02:47:41.383Z,96.42
2018-12-15T02:50:44.245Z,96.47
2018-12-15T02:53:47.822Z,96.12
2018-12-15T02:56:51.323Z,95.84
2018-12-15T02:59:54.845Z,95.87
2018-12-15T03:02:58.596Z,95.84
2018-12-15T03:06:02.056Z,95.86
2018-12-15T03:09:07.394Z,95.80
2018-12-15T03:12:10.939Z,95.98
2018-12-15T03:15:14.539Z,96.44
2018-12-15T03:18:18.081Z,96.79
2018-12-15T03:21:21.604Z,96.93
2018-12-15T03:24:25.181Z,96.77
2018-12-15T03:27:29.315Z,96.76
2018-12-15T03:30:32.954Z,96.96
2018-12-15T03:33:36.527Z,97.06
2018-12-15T03:36:40.043Z,96.97
2018-12-15T03:39:44.443Z,96.63
2018-12-15T03:42:48.260Z,96.99
2018-12-15T03:45:51.772Z,97.14
2018-12-15T03:48:55.247Z,96.86
2018-12-15T03:51:58.789Z,96.91
2018-12-15T03:55:02.306Z,96.97
2018-12-15T03:58:06.430Z,97.21
2018-12-15T04:01:10.100Z,97.22
2018-12-15T04:04:13.566Z,97.09
2018-12-15T04:07:17.105Z,97.22
2018-12-15T04:10:20.807Z,97.05
2018-12-15T04:13:24.359Z,96.91
2018-12-15T04:16:27.927Z,96.98
2018-12-15T04:19:31.495Z,97.37
2018-12-15T04:22:35.138Z,96.99
2018-12-15T04:25:38.654Z,96.78
2018-12-15T04:28:42.198Z,97.14
2018-12-15T04:31:46.658Z,97.05
2018-12-15T04:34:50.278Z,97.01
2018-12-15T04:37:53.839Z,96.73
2018-12-15T04:40:57.353Z,96.77
2018-12-15T04:44:01.335Z,96.56
2018-12-15T04:47:05.198Z,96.02
2018-12-15T04:50:08.892Z,95.58
2018-12-15T04:53:12.447Z,95.19
2018-12-15T04:56:16.070Z,95.42
2018-12-15T04:59:19.797Z,95.22
2018-12-15T05:02:23.350Z,95.61
2018-12-15T05:05:27.088Z,95.53
2018-12-15T05:08:30.532Z,95.98
2018-12-15T05:11:34.092Z,95.51
2018-12-15T05:14:37.691Z,95.22
2018-12-15T05:17:41.166Z,95.25
2018-12-15T05:20:44.810Z,95.35
2018-12-15T05:23:48.349Z,94.99
2018-12-15T05:26:51.795Z,94.38
2018-12-15T05:29:55.576Z,94.41
2018-12-15T05:32:59.127Z,94.67
2018-12-15T05:36:02.664Z,95.02
2018-12-15T05:39:07.116Z,94.99
2018-12-15T05:42:10.701Z,95.15
2018-12-15T05:45:14.250Z,94.84
2018-12-15T05:48:17.776Z,94.65
2018-12-15T05:51:21.452Z,94.45
2018-12-15T05:54:25.050Z,94.25
2018-12-15T05:57:28.631Z,94.12
2018-12-15T06:00:32.268Z,94.12
2018-12-15T06:03:35.775Z,93.94
2018-12-15T06:06:39.402Z,93.52
2018-12-15T06:15:17.151Z,92.60
2018-12-15T06:18:20.743Z,92.60
2018-12-15T06:21:24.247Z,93.33
2018-12-15T06:24:27.872Z,93.09
2018-12-15T06:27:31.466Z,91.11
2018-12-15T06:30:35.063Z,91.39
2018-12-15T06:33:38.621Z,90.99
2018-12-15T06:36:42.190Z,88.33
2018-12-15T06:39:46.698Z,87.64
2018-12-15T06:42:50.242Z,88.07
2018-12-15T06:45:54.145Z,87.78
2018-12-15T06:48:57.615Z,86.87
2018-12-15T06:52:01.197Z,86.79
2018-12-15T06:55:04.881Z,87.56
2018-12-15T06:58:08.356Z,87.48
2018-12-15T07:01:11.907Z,88.16
2018-12-15T07:04:15.519Z,87.52
2018-12-15T07:07:19.016Z,86.58
2018-12-15T07:10:22.526Z,87.27
2018-12-15T07:13:26.066Z,87.43
2018-12-15T07:16:29.580Z,86.92
2018-12-15T07:19:33.302Z,87.59
2018-12-15T07:22:36.810Z,86.44
2018-12-15T07:25:40.964Z,86.28
2018-12-15T07:28:46.085Z,86.23
2018-12-15T07:31:49.670Z,86.80
2018-12-15T07:34:53.130Z,86.68
2018-12-15T07:37:56.605Z,86.61
2018-12-15T07:41:00.918Z,84.89
2018-12-15T07:44:04.584Z,84.74
2018-12-15T07:47:08.124Z,82.61
2018-12-15T07:50:11.759Z,83.31
2018-12-15T07:53:15.245Z,83.37
2018-12-15T07:56:20.880Z,82.66
2018-12-15T07:59:24.509Z,81.85
2018-12-15T08:02:28.099Z,81.10
2018-12-15T08:05:31.744Z,81.56
2018-12-15T08:08:35.254Z,81.20
2018-12-15T08:11:44.137Z,82.79
2018-12-15T08:14:47.671Z,82.08
2018-12-15T08:17:54.027Z,83.15
2018-12-15T08:20:57.694Z,83.83
2018-12-15T08:24:01.230Z,83.42
2018-12-15T08:27:04.984Z,83.92
2018-12-15T08:30:09.991Z,83.87
2018-12-15T08:33:13.566Z,84.38
2018-12-15T08:36:17.244Z,84.40
2018-12-15T08:39:20.694Z,84.34
2018-12-15T08:42:24.239Z,84.27
2018-12-15T08:45:27.860Z,83.04
2018-12-15T08:48:31.389Z,83.66
2018-12-15T08:51:35.236Z,82.25
2018-12-15T08:54:38.893Z,84.22
2018-12-15T08:57:42.406Z,82.86
2018-12-15T09:00:45.993Z,84.41
2018-12-15T09:03:49.629Z,84.98
2018-12-15T09:06:53.071Z,84.50
2018-12-15T09:09:56.764Z,85.14
2018-12-15T09:13:00.395Z,85.18
2018-12-15T09:16:03.999Z,84.01
2018-12-15T09:19:11.252Z,84.29
2018-12-15T09:22:13.214Z,83.97
2018-12-15T09:25:16.710Z,83.24
2018-12-15T09:28:20.298Z,84.00
2018-12-15T09:31:23.775Z,83.83
2018-12-15T09:34:27.383Z,83.15
2018-12-15T09:37:30.894Z,83.28
2018-12-15T09:40:34.638Z,83.07
2018-12-15T09:43:38.224Z,83.37
2018-12-15T09:46:41.737Z,83.45
2018-12-15T09:49:45.795Z,83.54
2018-12-15T09:52:49.358Z,83.79
2018-12-15T09:55:52.843Z,83.19
2018-12-15T09:58:56.342Z,82.27
2018-12-15T10:01:59.818Z,83.71
2018-12-15T10:05:03.379Z,84.78
2018-12-15T10:08:06.859Z,84.52
2018-12-15T10:11:10.418Z,83.85
2018-12-15T10:14:15.103Z,84.52
2018-12-15T10:17:18.724Z,84.43
2018-12-15T10:20:22.397Z,85.57
2018-12-15T10:23:26.069Z,85.70
2018-12-15T10:26:29.762Z,85.68
2018-12-15T10:29:38.545Z,84.84
2018-12-15T10:32:47.389Z,86.00
2018-12-15T10:35:50.973Z,85.70
2018-12-15T10:38:54.578Z,86.17
2018-12-15T10:41:58.802Z,86.94
2018-12-15T10:45:02.489Z,86.27
2018-12-15T10:48:06.117Z,85.71
2018-12-15T10:51:09.782Z,86.14
2018-12-15T10:54:13.333Z,86.52
2018-12-15T10:57:16.970Z,86.17
2018-12-15T11:00:26.754Z,86.11
2018-12-15T11:03:30.314Z,86.42
2018-12-15T11:06:33.835Z,86.97
2018-12-15T11:09:37.303Z,86.49
2018-12-15T11:12:40.847Z,86.11
2018-12-15T11:15:46.210Z,86.45
2018-12-15T11:18:49.908Z,85.66
2018-12-15T11:21:53.510Z,86.37
2018-12-15T11:24:57.019Z,86.40
2018-12-15T11:28:00.477Z,86.60
2018-12-15T11:31:04.012Z,85.42
2018-12-15T11:34:07.593Z,86.60
2018-12-15T11:37:11.053Z,86.04
2018-12-15T11:40:15.052Z,85.73
2018-12-15T11:43:18.660Z,86.27
2018-12-15T11:46:22.308Z,84.56
2018-12-15T11:49:25.944Z,86.49
2018-12-15T11:52:29.515Z,87.15
2018-12-15T11:55:33.093Z,85.14
2018-12-15T11:58:36.640Z,86.30
2018-12-15T12:01:40.115Z,85.05
2018-12-15T12:04:43.716Z,84.48
2018-12-15T12:07:47.353Z,84.50
2018-12-15T12:10:50.884Z,86.77
2018-12-15T12:14:00.134Z,86.05
2018-12-15T12:16:59.889Z,86.53
2018-12-15T12:20:04.815Z,85.94
2018-12-15T12:23:08.302Z,85.20
2018-12-15T12:26:11.770Z,84.48
2018-12-15T12:29:15.408Z,85.12
2018-12-15T12:32:18.950Z,84.72
2018-12-15T12:35:22.457Z,84.48
2018-12-15T12:38:25.972Z,84.80
2018-12-15T12:41:29.517Z,85.80
2018-12-15T12:44:33.224Z,85.19
2018-12-15T12:47:36.808Z,84.24
2018-12-15T12:50:40.278Z,84.66
2018-12-15T12:53:43.804Z,85.03
2018-12-15T12:56:47.305Z,84.65
2018-12-15T12:59:50.877Z,84.73
2018-12-15T13:02:54.774Z,84.34
2018-12-15T13:05:58.489Z,84.04
2018-12-15T13:09:02.092Z,85.04
2018-12-15T13:12:05.741Z,84.64
2018-12-15T13:15:09.313Z,84.12
2018-12-15T13:18:12.868Z,85.02
2018-12-15T13:21:16.484Z,84.48
2018-12-15T13:24:20.012Z,85.47
2018-12-15T13:27:23.513Z,84.90
2018-12-15T13:30:27.237Z,84.43
2018-12-15T13:33:34.804Z,84.70
2018-12-15T13:36:38.507Z,84.73
2018-12-15T13:39:42.028Z,84.26
2018-12-15T13:42:46.654Z,84.74
2018-12-15T13:45:50.288Z,85.41
2018-12-15T13:48:53.883Z,84.83
2018-12-15T13:51:57.484Z,85.14
2018-12-15T13:55:00.912Z,84.85
2018-12-15T13:58:04.599Z,84.71
2018-12-15T14:01:08.060Z,83.89
2018-12-15T14:04:11.523Z,84.75
2018-12-15T14:07:15.671Z,85.21
2018-12-15T14:10:19.307Z,84.21
2018-12-15T14:13:22.796Z,84.47
2018-12-15T14:16:26.388Z,83.86
2018-12-15T14:19:29.894Z,83.73
2018-12-15T14:22:33.538Z,82.86
2018-12-15T14:25:37.062Z,82.92
2018-12-15T14:28:40.718Z,82.98
2018-12-15T14:31:44.227Z,81.47
2018-12-15T14:34:47.754Z,81.38
2018-12-15T14:37:51.514Z,81.34
2018-12-15T14:40:55.033Z,80.97
2018-12-15T14:43:58.758Z,78.94
2018-12-15T14:47:02.304Z,79.05
2018-12-15T14:50:06.611Z,79.70
2018-12-15T14:53:10.273Z,79.25
2018-12-15T14:56:13.762Z,79.45
2018-12-15T14:59:17.307Z,79.90
2018-12-15T15:02:20.989Z,79.70
2018-12-15T15:05:24.613Z,79.75
2018-12-15T15:08:28.277Z,79.23
2018-12-15T15:11:31.977Z,79.91
2018-12-15T15:14:35.422Z,79.25
2018-12-15T15:17:39.058Z,79.82
2018-12-15T15:20:42.547Z,79.80
2018-12-15T15:23:47.054Z,79.50
2018-12-15T15:26:50.455Z,79.03
2018-12-15T15:29:53.938Z,79.26
2018-12-15T15:32:57.467Z,80.45
2018-12-15T15:36:01.023Z,79.68
2018-12-15T15:39:07.349Z,79.30
2018-12-15T15:42:10.868Z,79.90
2018-12-15T15:45:14.433Z,79.77
2018-12-15T15:48:17.941Z,79.06
2018-12-15T15:51:21.555Z,79.76
2018-12-15T15:54:25.198Z,80.03
2018-12-15T15:57:28.743Z,80.93
2018-12-15T16:00:32.483Z,80.54
2018-12-15T16:03:36.171Z,79.61
2018-12-15T16:06:39.801Z,79.51
2018-12-15T16:09:45.099Z,80.11
2018-12-15T16:12:48.793Z,79.69
2018-12-15T16:15:52.356Z,79.22
2018-12-15T16:18:55.991Z,79.86
2018-12-15T16:21:59.457Z,79.62
2018-12-15T16:25:03.098Z,79.61
2018-12-15T16:28:06.542Z,80.68
2018-12-15T16:31:10.139Z,79.38
2018-12-15T16:34:13.679Z,79.35
2018-12-15T16:37:17.192Z,79.45
2018-12-15T16:40:20.877Z,79.45
2018-12-15T16:43:24.447Z,79.14
2018-12-15T16:46:27.922Z,79.37
2018-12-15T16:49:31.584Z,79.82
2018-12-15T16:52:35.301Z,79.40
2018-12-15T16:55:38.826Z,79.43
2018-12-15T16:58:42.480Z,78.41
2018-12-15T17:01:47.246Z,78.51
2018-12-15T17:04:50.867Z,78.70
2018-12-15T17:07:54.541Z,78.32
2018-12-15T17:10:58.088Z,77.58
2018-12-15T17:14:01.688Z,78.04
2018-12-15T17:17:05.307Z,77.69
2018-12-15T17:20:10.016Z,77.67
2018-12-15T17:23:16.436Z,78.63
2018-12-15T17:26:19.983Z,79.15
2018-12-15T17:29:23.599Z,78.61
2018-12-15T17:32:28.215Z,79.01
2018-12-15T17:35:31.984Z,78.61
2018-12-15T17:38:35.580Z,79.22
2018-12-15T17:41:39.292Z,78.24
2018-12-15T17:44:43.050Z,78.55
2018-12-15T17:47:47.547Z,79.25
2018-12-15T17:50:51.183Z,79.61
2018-12-15T17:53:54.813Z,78.64
2018-12-15T17:56:58.393Z,78.12
2018-12-15T18:00:01.929Z,78.77
2018-12-15T18:03:05.551Z,78.16
2018-12-15T18:06:09.117Z,77.91
2018-12-15T18:09:12.677Z,78.15
2018-12-15T18:12:17.311Z,77.95
2018-12-15T18:15:20.987Z,78.92
2018-12-15T18:18:24.566Z,78.32
2018-12-15T18:21:28.132Z,79.17
2018-12-15T18:24:31.643Z,79.02
2018-12-15T18:27:35.162Z,78.63
2018-12-15T18:30:38.681Z,78.51
2018-12-15T18:33:42.269Z,78.73
2018-12-15T18:36:47.557Z,78.90
2018-12-15T18:39:51.182Z,78.91
2018-12-15T18:42:54.641Z,78.59
2018-12-15T18:45:58.176Z,79.11
2018-12-15T18:49:01.937Z,78.74
2018-12-15T18:52:05.461Z,79.97
2018-12-15T18:55:09.062Z,79.99
2018-12-15T18:58:12.603Z,79.11
2018-12-15T19:01:16.755Z,78.48
2018-12-15T19:04:20.331Z,79.24
2018-12-15T19:07:23.927Z,78.92
2018-12-15T19:10:27.571Z,79.27
2018-12-15T19:13:31.123Z,78.09
2018-12-15T19:16:34.752Z,78.21
2018-12-15T19:19:38.363Z,79.20
2018-12-15T19:22:42.125Z,79.45
2018-12-15T19:25:45.798Z,80.16
2018-12-15T19:28:49.503Z,80.06
2018-12-15T19:31:54.226Z,79.77
2018-12-15T19:34:57.753Z,80.48
2018-12-15T19:38:01.509Z,80.64
2018-12-15T19:41:05.518Z,80.72
2018-12-15T19:44:09.102Z,80.53
2018-12-15T19:47:12.650Z,80.20
2018-12-15T19:50:16.912Z,80.38
2018-12-15T19:53:20.638Z,81.82
2018-12-15T19:56:24.217Z,81.77
2018-12-15T19:59:27.873Z,80.75
2018-12-15T20:02:31.701Z,81.62
2018-12-15T20:05:35.235Z,80.74
2018-12-15T20:08:39.191Z,81.06
2018-12-15T20:11:42.860Z,81.35
2018-12-15T20:14:47.736Z,81.47
2018-12-15T20:17:51.417Z,81.89
2018-12-15T20:20:55.151Z,81.23
2018-12-15T20:23:58.781Z,81.57
2018-12-15T20:27:02.368Z,81.47
2018-12-15T20:30:06.852Z,82.29
2018-12-15T20:33:10.477Z,81.59
2018-12-15T20:36:14.056Z,81.16
2018-12-15T20:39:17.747Z,80.99
2018-12-15T20:42:21.382Z,81.31
2018-12-15T20:45:25.005Z,82.40
2018-12-15T20:48:28.582Z,81.74
2018-12-15T20:51:32.417Z,82.46
2018-12-15T20:54:36.036Z,81.94
2018-12-15T20:57:39.690Z,81.57
2018-12-15T21:00:43.373Z,80.91
2018-12-15T21:09:26.191Z,80.25
2018-12-15T21:12:29.876Z,80.89
2018-12-15T21:15:38.915Z,81.14
2018-12-15T21:18:42.635Z,81.15
2018-12-15T21:21:49.443Z,81.86
2018-12-15T21:24:51.866Z,80.93
2018-12-15T21:27:55.552Z,81.35
2018-12-15T21:30:59.636Z,81.55
2018-12-15T21:34:07.779Z,81.63
2018-12-15T21:37:08.785Z,82.06
2018-12-15T21:40:12.507Z,82.15
2018-12-15T21:43:16.240Z,82.25
2018-12-15T21:46:19.797Z,82.62
2018-12-15T21:49:24.656Z,82.34
2018-12-15T21:52:28.334Z,82.86
2018-12-15T21:55:31.931Z,81.83
2018-12-15T21:58:35.618Z,82.33
2018-12-15T22:01:39.147Z,82.50
2018-12-15T22:04:42.712Z,82.43
2018-12-15T22:07:46.316Z,82.93
2018-12-15T22:10:49.952Z,82.90
2018-12-15T22:13:53.671Z,82.58
2018-12-15T22:16:57.247Z,83.08
2018-12-15T22:20:00.860Z,82.93
2018-12-15T22:23:04.438Z,82.85
2018-12-15T22:26:08.077Z,82.92
2018-12-15T22:29:11.725Z,82.43
2018-12-15T22:32:15.292Z,82.41
2018-12-15T22:35:18.890Z,82.40
2018-12-15T22:38:22.444Z,82.15
2018-12-15T22:41:26.130Z,82.83
2018-12-15T22:44:29.634Z,82.63
2018-12-15T22:47:33.373Z,81.86
2018-12-15T22:50:36.990Z,82.45
2018-12-15T22:53:40.719Z,82.57
2018-12-15T22:56:44.361Z,82.68
2018-12-15T22:59:48.018Z,82.46
2018-12-15T23:02:51.897Z,82.05
2018-12-15T23:05:55.457Z,82.12
2018-12-15T23:08:59.307Z,82.05
2018-12-15T23:12:03.217Z,81.87
2018-12-15T23:15:08.079Z,82.27
2018-12-15T23:18:11.580Z,82.54
2018-12-15T23:21:15.206Z,81.23
2018-12-15T23:24:18.735Z,81.21
2018-12-15T23:27:22.285Z,82.05
2018-12-15T23:30:26.579Z,82.12
2018-12-15T23:33:36.666Z,82.06
2018-12-15T23:36:40.196Z,82.07
2018-12-15T23:39:44.115Z,81.40
2018-12-15T23:42:47.811Z,81.56
2018-12-15T23:45:51.518Z,82.23
2018-12-15T23:48:55.193Z,82.21
2018-12-15T23:51:58.808Z,81.84
2018-12-15T23:55:02.639Z,82.09
2018-12-15T23:58:06.210Z,82.31
